createdAt,value
2022-12-20T00:00:52.461Z,22.60
2022-12-20T00:03:20.644Z,22.38
2022-12-20T00:05:47.940Z,22.30
2022-12-20T00:08:15.448Z,21.10
2022-12-20T00:10:44.084Z,20.83
2022-12-20T00:13:12.581Z,22.85
2022-12-20T00:15:39.818Z,22.90
2022-12-20T00:18:07.106Z,21.23
2022-12-20T00:20:35.372Z,21.33
2022-12-20T00:23:02.917Z,22.58
2022-12-20T00:25:30.091Z,20.50
2022-12-20T00:27:57.278Z,21.85
2022-12-20T00:30:24.473Z,20.70
2022-12-20T00:32:51.669Z,21.52
2022-12-20T00:35:18.958Z,21.60
2022-12-20T00:37:46.212Z,19.67
2022-12-20T00:40:13.455Z,20.83
2022-12-20T00:42:40.640Z,21.30
2022-12-20T00:45:08.160Z,21.10
2022-12-20T00:47:35.286Z,20.70
2022-12-20T00:50:02.450Z,20.25
2022-12-20T00:52:29.615Z,20.48
2022-12-20T00:54:56.765Z,19.88
2022-12-20T00:57:23.976Z,20.40
2022-12-20T00:59:51.093Z,21.30
2022-12-20T01:02:18.388Z,20.23
2022-12-20T01:04:45.620Z,19.58
2022-12-20T01:07:12.806Z,20.30
2022-12-20T01:09:40.255Z,21.00
2022-12-20T01:12:07.548Z,19.90
2022-12-20T01:14:34.697Z,19.48
2022-12-20T01:17:01.937Z,19.02
2022-12-20T01:19:29.097Z,18.77
2022-12-20T01:21:56.232Z,20.35
2022-12-20T01:24:23.416Z,19.55
2022-12-20T01:26:50.629Z,18.85
2022-12-20T01:29:18.080Z,20.00
2022-12-20T01:31:45.374Z,19.27
2022-12-20T01:34:12.853Z,20.13
2022-12-20T01:36:40.064Z,20.33
2022-12-20T01:39:15.068Z,19.67
2022-12-20T01:41:43.195Z,19.23
2022-12-20T01:44:19.288Z,17.83
2022-12-20T01:46:47.465Z,19.42
2022-12-20T01:49:20.548Z,18.30
2022-12-20T01:51:49.526Z,18.30
2022-12-20T01:54:22.868Z,18.63
2022-12-20T01:56:58.635Z,19.48
2022-12-20T01:59:27.002Z,17.75
2022-12-20T02:01:54.428Z,18.90
2022-12-20T02:04:21.696Z,18.52
2022-12-20T02:06:48.817Z,19.58
2022-12-20T02:09:16.381Z,18.17
2022-12-20T02:12:02.409Z,18.15
2022-12-20T02:14:51.135Z,17.77
2022-12-20T02:17:35.818Z,17.90
2022-12-20T02:20:06.873Z,18.58
2022-12-20T02:22:52.796Z,17.83
2022-12-20T02:25:29.463Z,17.58
2022-12-20T02:28:02.159Z,17.75
2022-12-20T02:30:33.637Z,17.45
2022-12-20T02:33:03.343Z,17.50
2022-12-20T02:35:32.262Z,17.27
2022-12-20T02:38:00.888Z,18.98
2022-12-20T02:40:39.379Z,17.10
2022-12-20T02:43:28.588Z,17.27
2022-12-20T02:45:56.925Z,18.35
2022-12-20T02:48:25.124Z,17.67
2022-12-20T02:50:53.774Z,17.48
2022-12-20T02:53:21.203Z,16.77
2022-12-20T02:56:04.011Z,17.08
2022-12-20T02:58:39.155Z,17.70
2022-12-20T03:01:15.244Z,17.67
2022-12-20T03:03:42.646Z,16.35
2022-12-20T03:06:09.837Z,16.65
2022-12-20T03:08:37.041Z,17.83
2022-12-20T03:11:04.221Z,16.77
2022-12-20T03:13:31.356Z,18.15
2022-12-20T03:15:58.545Z,17.95
2022-12-20T03:18:25.724Z,17.23
2022-12-20T03:20:52.974Z,17.35
2022-12-20T03:23:22.058Z,17.30
2022-12-20T03:25:49.303Z,17.40
2022-12-20T03:28:16.762Z,17.35
2022-12-20T03:30:44.056Z,17.20
2022-12-20T03:33:11.214Z,17.48
2022-12-20T03:35:38.382Z,17.15
2022-12-20T03:38:05.727Z,17.17
2022-12-20T03:40:32.935Z,16.45
2022-12-20T03:43:00.136Z,16.95
2022-12-20T03:45:27.269Z,17.10
2022-12-20T03:48:00.309Z,17.58
2022-12-20T03:50:27.415Z,17.25
2022-12-20T03:52:54.582Z,16.40
2022-12-20T03:55:21.708Z,16.67
2022-12-20T03:57:48.881Z,16.58
2022-12-20T04:00:16.504Z,17.38
2022-12-20T04:02:43.848Z,16.65
2022-12-20T04:05:11.181Z,17.33
2022-12-20T04:07:38.430Z,17.55
2022-12-20T04:10:06.075Z,17.52
2022-12-20T04:12:33.195Z,17.60
2022-12-20T04:15:00.393Z,18.10
2022-12-20T04:17:27.538Z,16.90
2022-12-20T04:19:54.703Z,17.08
2022-12-20T04:22:21.911Z,18.40
2022-12-20T04:24:49.109Z,18.02
2022-12-20T04:27:16.259Z,16.70
2022-12-20T04:29:43.439Z,17.20
2022-12-20T04:32:10.612Z,17.55
2022-12-20T04:34:37.742Z,17.38
2022-12-20T04:37:04.881Z,17.30
2022-12-20T04:39:32.079Z,16.08
2022-12-20T04:41:59.217Z,16.88
2022-12-20T04:44:26.386Z,16.80
2022-12-20T04:46:53.573Z,16.67
2022-12-20T04:49:20.738Z,17.30
2022-12-20T04:51:47.902Z,16.08
2022-12-20T04:54:15.058Z,16.35
2022-12-20T04:56:42.300Z,16.52
2022-12-20T04:59:09.483Z,16.40
2022-12-20T05:01:36.655Z,17.58
2022-12-20T05:04:03.984Z,16.50
2022-12-20T05:06:31.179Z,16.60
2022-12-20T05:08:58.507Z,15.55
2022-12-20T05:11:25.615Z,14.80
2022-12-20T05:13:52.739Z,15.15
2022-12-20T05:16:19.926Z,16.45
2022-12-20T05:18:49.550Z,16.70
2022-12-20T05:21:35.946Z,16.30
2022-12-20T05:24:21.964Z,14.57
2022-12-20T05:26:49.179Z,15.70
2022-12-20T05:29:17.001Z,16.00
2022-12-20T05:31:44.264Z,15.38
2022-12-20T05:34:11.463Z,14.55
2022-12-20T05:36:38.671Z,16.05
2022-12-20T05:39:06.158Z,14.70
2022-12-20T05:41:33.391Z,16.02
2022-12-20T05:44:00.531Z,15.93
2022-12-20T05:46:27.863Z,15.90
2022-12-20T05:48:55.100Z,15.48
2022-12-20T05:51:22.446Z,15.60
2022-12-20T05:53:49.577Z,16.70
2022-12-20T05:56:16.702Z,14.77
2022-12-20T05:58:44.275Z,15.52
2022-12-20T06:01:11.461Z,16.00
2022-12-20T06:03:40.067Z,16.38
2022-12-20T06:06:14.048Z,16.15
2022-12-20T06:08:42.345Z,16.87
2022-12-20T06:11:09.501Z,16.48
2022-12-20T06:13:36.688Z,16.67
2022-12-20T06:16:03.988Z,16.17
2022-12-20T06:18:31.193Z,16.42
2022-12-20T06:20:58.415Z,17.23
2022-12-20T06:23:25.840Z,16.80
2022-12-20T06:25:53.163Z,16.35
2022-12-20T06:28:22.231Z,15.57
2022-12-20T06:30:56.372Z,15.80
2022-12-20T06:33:23.609Z,15.45
2022-12-20T06:35:51.328Z,15.02
2022-12-20T06:38:18.562Z,15.80
2022-12-20T06:40:45.775Z,15.30
2022-12-20T06:43:12.885Z,15.77
2022-12-20T06:45:42.162Z,14.60
2022-12-20T06:48:10.042Z,15.68
2022-12-20T06:50:37.929Z,15.52
2022-12-20T06:53:05.104Z,14.82
2022-12-20T06:55:32.380Z,15.65
2022-12-20T06:57:59.587Z,14.98
2022-12-20T07:00:27.417Z,15.50
2022-12-20T07:02:54.786Z,14.63
2022-12-20T07:05:22.177Z,14.95
2022-12-20T07:07:49.448Z,16.08
2022-12-20T07:10:16.697Z,15.32
2022-12-20T07:15:31.938Z,15.07
2022-12-20T07:17:59.831Z,15.15
2022-12-20T07:20:27.003Z,14.25
2022-12-20T07:22:54.198Z,14.80
2022-12-20T07:25:21.505Z,14.80
2022-12-20T07:27:52.318Z,14.90
2022-12-20T07:30:21.116Z,15.75
2022-12-20T07:32:48.326Z,14.57
2022-12-20T07:35:15.771Z,14.88
2022-12-20T07:37:42.988Z,14.30
2022-12-20T07:40:12.317Z,13.68
2022-12-20T07:42:46.169Z,14.27
2022-12-20T07:45:15.639Z,13.85
2022-12-20T07:47:43.727Z,13.43
2022-12-20T07:50:11.770Z,13.80
2022-12-20T07:52:40.516Z,14.02
2022-12-20T07:55:08.427Z,14.23
2022-12-20T07:57:38.610Z,13.85
2022-12-20T08:00:07.217Z,14.45
2022-12-20T08:02:49.654Z,14.13
2022-12-20T08:05:17.919Z,13.68
2022-12-20T08:07:46.730Z,14.50
2022-12-20T08:10:15.125Z,13.55
2022-12-20T08:12:43.602Z,14.35
2022-12-20T08:15:11.023Z,15.63
2022-12-20T08:17:38.277Z,14.45
2022-12-20T08:20:06.807Z,14.40
2022-12-20T08:22:34.050Z,14.43
2022-12-20T08:25:01.235Z,14.00
2022-12-20T08:27:28.378Z,14.15
2022-12-20T08:29:55.496Z,14.10
2022-12-20T08:32:22.667Z,13.57
2022-12-20T08:34:49.783Z,14.85
2022-12-20T08:37:17.790Z,13.50
2022-12-20T08:39:47.345Z,14.10
2022-12-20T08:42:14.672Z,13.88
2022-12-20T08:44:41.881Z,14.43
2022-12-20T08:47:09.057Z,13.45
2022-12-20T08:49:36.182Z,13.02
2022-12-20T08:52:03.396Z,13.25
2022-12-20T08:54:30.577Z,13.88
2022-12-20T08:56:57.732Z,14.02
2022-12-20T08:59:26.206Z,12.45
2022-12-20T09:01:54.811Z,13.25
2022-12-20T09:04:22.785Z,13.48
2022-12-20T09:06:53.001Z,13.18
2022-12-20T09:09:20.204Z,13.23
2022-12-20T09:11:47.368Z,13.77
2022-12-20T09:14:14.552Z,15.10
2022-12-20T09:16:41.796Z,13.40
2022-12-20T09:19:09.403Z,14.38
2022-12-20T09:21:36.594Z,14.00
2022-12-20T09:24:03.749Z,14.45
2022-12-20T09:26:30.981Z,13.85
2022-12-20T09:28:59.215Z,13.73
2022-12-20T09:31:27.279Z,12.27
2022-12-20T09:33:55.357Z,12.52
2022-12-20T09:36:23.201Z,14.07
2022-12-20T09:38:50.441Z,13.90
2022-12-20T09:41:33.346Z,14.25
2022-12-20T09:44:01.763Z,13.32
2022-12-20T09:46:29.606Z,14.15
2022-12-20T09:48:57.369Z,13.80
2022-12-20T09:51:30.517Z,13.15
2022-12-20T09:53:57.640Z,13.82
2022-12-20T09:56:27.523Z,13.95
2022-12-20T09:59:03.858Z,13.40
2022-12-20T10:01:38.678Z,14.13
2022-12-20T10:04:08.905Z,13.00
2022-12-20T10:06:50.479Z,13.02
2022-12-20T10:09:26.951Z,13.98
2022-12-20T10:12:02.425Z,13.13
2022-12-20T10:14:48.193Z,14.13
2022-12-20T10:17:18.059Z,13.55
2022-12-20T10:19:45.205Z,12.95
2022-12-20T10:22:15.231Z,13.32
2022-12-20T10:24:45.225Z,13.98
2022-12-20T10:27:15.228Z,13.07
2022-12-20T10:29:43.233Z,12.90
2022-12-20T10:32:18.634Z,13.38
2022-12-20T10:35:06.077Z,13.25
2022-12-20T10:37:33.330Z,13.60
2022-12-20T10:40:07.066Z,12.63
2022-12-20T10:42:39.650Z,13.15
2022-12-20T10:45:35.856Z,13.82
2022-12-20T10:48:05.158Z,13.82
2022-12-20T10:50:32.381Z,13.65
2022-12-20T10:53:08.741Z,13.77
2022-12-20T10:55:40.510Z,14.15
2022-12-20T10:58:23.325Z,13.93
2022-12-20T11:00:50.650Z,13.65
2022-12-20T11:03:21.174Z,13.20
2022-12-20T11:05:56.568Z,14.00
2022-12-20T11:08:41.173Z,12.93
2022-12-20T11:11:22.727Z,14.13
2022-12-20T11:13:50.651Z,13.95
2022-12-20T11:16:36.762Z,14.10
2022-12-20T11:19:12.900Z,12.93
2022-12-20T11:21:43.297Z,15.00
2022-12-20T11:24:10.778Z,13.88
2022-12-20T11:26:38.191Z,13.60
2022-12-20T11:29:19.846Z,13.90
2022-12-20T11:32:05.585Z,15.27
2022-12-20T11:34:39.618Z,14.35
2022-12-20T11:37:29.374Z,14.93
2022-12-20T11:40:15.856Z,13.88
2022-12-20T11:42:49.270Z,14.45
2022-12-20T11:45:24.186Z,15.05
2022-12-20T11:47:55.833Z,13.77
2022-12-20T11:50:26.065Z,13.32
2022-12-20T11:52:57.503Z,15.18
2022-12-20T11:55:44.123Z,16.00
2022-12-20T11:58:20.184Z,15.68
2022-12-20T12:00:54.054Z,15.93
2022-12-20T12:03:24.596Z,15.25
2022-12-20T12:05:53.282Z,15.73
2022-12-20T12:08:24.124Z,15.43
2022-12-20T12:11:01.186Z,15.50
2022-12-20T12:13:29.349Z,16.65
2022-12-20T12:16:06.867Z,15.48
2022-12-20T12:18:35.505Z,16.75
2022-12-20T12:21:09.586Z,17.27
2022-12-20T12:23:40.098Z,18.23
2022-12-20T12:26:14.833Z,19.77
2022-12-20T12:28:42.210Z,21.00
2022-12-20T12:31:16.473Z,20.38
2022-12-20T12:33:53.933Z,20.80
2022-12-20T12:36:40.077Z,19.27
2022-12-20T12:39:13.934Z,20.63
2022-12-20T12:41:54.607Z,20.65
2022-12-20T12:44:40.822Z,21.42
2022-12-20T12:47:13.821Z,21.05
2022-12-20T12:49:41.480Z,20.70
2022-12-20T12:52:24.056Z,19.67
2022-12-20T12:54:51.749Z,20.30
2022-12-20T12:57:19.245Z,20.27
2022-12-20T12:59:48.558Z,21.40
2022-12-20T13:02:16.546Z,20.48
2022-12-20T13:05:03.221Z,20.10
2022-12-20T13:09:58.347Z,20.10
2022-12-20T13:12:40.363Z,20.23
2022-12-20T13:15:22.950Z,20.48
2022-12-20T13:18:09.296Z,20.00
2022-12-20T13:23:09.258Z,20.45
2022-12-20T13:25:41.643Z,20.80
2022-12-20T13:28:32.316Z,19.55
2022-12-20T13:31:02.432Z,18.90
2022-12-20T13:33:38.789Z,19.77
2022-12-20T13:36:08.765Z,20.38
2022-12-20T13:38:38.569Z,19.77
2022-12-20T13:41:29.455Z,20.98
2022-12-20T13:44:01.931Z,19.52
2022-12-20T13:46:50.519Z,18.98
2022-12-20T13:49:23.312Z,20.25
2022-12-20T13:51:50.817Z,19.75
2022-12-20T13:54:26.697Z,19.75
2022-12-20T13:56:54.556Z,17.95
2022-12-20T13:59:29.338Z,20.15
2022-12-20T14:01:59.094Z,19.27
2022-12-20T14:04:27.563Z,19.10
2022-12-20T14:06:56.649Z,18.75
2022-12-20T14:09:32.320Z,18.48
2022-12-20T14:12:07.386Z,19.77
2022-12-20T14:14:38.183Z,20.33
2022-12-20T14:17:44.362Z,19.75
2022-12-20T14:20:17.554Z,18.88
2022-12-20T14:22:54.976Z,18.83
2022-12-20T14:25:29.915Z,19.00
2022-12-20T14:27:57.489Z,18.73
2022-12-20T14:30:29.653Z,18.40
2022-12-20T14:32:57.233Z,18.80
2022-12-20T14:35:24.658Z,17.92
2022-12-20T14:38:00.175Z,18.45
2022-12-20T14:40:28.092Z,19.52
2022-12-20T14:42:55.268Z,19.90
2022-12-20T14:45:27.259Z,18.27
2022-12-20T14:47:55.241Z,19.08
2022-12-20T14:50:30.044Z,18.67
2022-12-20T14:52:57.491Z,18.50
2022-12-20T14:55:26.388Z,18.83
2022-12-20T14:57:54.995Z,18.23
2022-12-20T15:00:29.900Z,19.23
2022-12-20T15:02:59.542Z,17.77
2022-12-20T15:05:36.460Z,18.55
2022-12-20T15:08:14.088Z,19.63
2022-12-20T15:10:42.831Z,19.00
2022-12-20T15:13:14.473Z,18.33
2022-12-20T15:15:42.051Z,18.77
2022-12-20T15:18:13.532Z,19.75
2022-12-20T15:20:41.556Z,19.33
2022-12-20T15:23:18.676Z,19.25
2022-12-20T15:25:46.989Z,20.30
2022-12-20T15:28:24.193Z,18.95
2022-12-20T15:30:52.490Z,18.52
2022-12-20T15:33:31.637Z,18.45
2022-12-20T15:35:58.853Z,17.75
2022-12-20T15:38:47.625Z,19.27
2022-12-20T15:41:28.217Z,18.00
2022-12-20T15:44:00.102Z,18.42
2022-12-20T15:46:28.043Z,19.00
2022-12-20T15:48:55.195Z,20.60
2022-12-20T15:51:22.365Z,18.55
2022-12-20T15:53:49.539Z,19.98
2022-12-20T15:56:21.741Z,18.77
2022-12-20T15:58:49.735Z,18.48
2022-12-20T16:01:19.272Z,18.95
2022-12-20T16:03:46.737Z,18.30
2022-12-20T16:06:13.937Z,18.08
2022-12-20T16:08:41.544Z,19.77
2022-12-20T16:11:15.694Z,19.33
2022-12-20T16:13:44.832Z,19.40
2022-12-20T16:16:17.987Z,19.38
2022-12-20T16:18:46.633Z,18.60
2022-12-20T16:21:18.790Z,19.30
2022-12-20T16:23:46.690Z,20.15
2022-12-20T16:26:17.386Z,19.23
2022-12-20T16:28:44.589Z,20.83
2022-12-20T16:31:13.257Z,20.65
2022-12-20T16:33:40.542Z,20.63
2022-12-20T16:36:10.568Z,19.58
2022-12-20T16:38:37.873Z,20.02
2022-12-20T16:41:37.308Z,20.05
2022-12-20T16:44:05.258Z,20.58
2022-12-20T16:46:33.499Z,21.27
2022-12-20T16:49:01.714Z,22.02
2022-12-20T16:51:30.767Z,22.25
2022-12-20T16:54:19.319Z,20.75
2022-12-20T16:56:48.412Z,21.48
2022-12-20T16:59:19.891Z,20.88
2022-12-20T17:01:49.839Z,21.73
2022-12-20T17:04:20.962Z,22.92
2022-12-20T17:06:48.428Z,21.55
2022-12-20T17:12:04.439Z,22.70
2022-12-20T17:14:31.744Z,22.85
2022-12-20T17:16:59.104Z,22.00
2022-12-20T17:19:26.905Z,23.55
2022-12-20T17:24:38.744Z,21.98
2022-12-20T17:27:05.885Z,23.40
2022-12-20T17:29:33.051Z,22.05
2022-12-20T17:32:00.378Z,22.27
2022-12-20T17:34:28.892Z,22.52
2022-12-20T17:36:56.929Z,23.20
2022-12-20T17:39:25.409Z,24.95
2022-12-20T17:41:54.057Z,21.63
2022-12-20T17:44:23.861Z,24.55
2022-12-20T17:46:53.316Z,24.20
2022-12-20T17:49:21.210Z,23.00
2022-12-20T17:51:48.349Z,23.33
2022-12-20T17:54:19.380Z,23.35
2022-12-20T17:56:46.919Z,22.90
2022-12-20T17:59:14.686Z,21.70
2022-12-20T18:01:42.920Z,24.20
2022-12-20T18:04:12.063Z,23.88
2022-12-20T18:06:40.341Z,23.35
2022-12-20T18:09:08.962Z,23.50
2022-12-20T18:11:36.069Z,23.67
2022-12-20T18:14:03.643Z,22.90
2022-12-20T18:16:32.122Z,22.88
2022-12-20T18:18:59.656Z,23.77
2022-12-20T18:21:27.723Z,22.13
2022-12-20T18:23:55.342Z,24.23
2022-12-20T18:26:24.415Z,23.73
2022-12-20T18:28:55.989Z,22.00
2022-12-20T18:31:27.328Z,22.60
2022-12-20T18:33:57.999Z,22.85
2022-12-20T18:36:27.297Z,23.38
2022-12-20T18:38:54.916Z,23.13
2022-12-20T18:41:26.593Z,23.38
2022-12-20T18:43:54.395Z,24.00
2022-12-20T18:46:22.424Z,21.30
2022-12-20T18:48:53.152Z,22.70
2022-12-20T18:51:21.622Z,22.35
2022-12-20T18:53:49.589Z,23.10
2022-12-20T18:56:18.314Z,22.65
2022-12-20T18:58:45.801Z,22.63
2022-12-20T19:01:17.600Z,22.08
2022-12-20T19:03:45.506Z,23.58
2022-12-20T19:06:13.467Z,21.13
2022-12-20T19:08:41.192Z,22.25
2022-12-20T19:11:10.420Z,22.30
2022-12-20T19:13:38.175Z,21.17
2022-12-20T19:16:07.424Z,22.05
2022-12-20T19:18:35.188Z,21.80
2022-12-20T19:21:11.671Z,22.55
2022-12-20T19:23:39.979Z,21.20
2022-12-20T19:26:08.501Z,23.77
2022-12-20T19:28:36.295Z,22.77
2022-12-20T19:31:21.054Z,22.27
2022-12-20T19:33:48.896Z,23.13
2022-12-20T19:36:17.514Z,22.95
2022-12-20T19:38:45.700Z,23.83
2022-12-20T19:41:13.337Z,24.42
2022-12-20T19:43:40.537Z,23.67
2022-12-20T19:46:08.055Z,23.52
2022-12-20T19:48:35.329Z,24.45
2022-12-20T19:51:10.340Z,24.67
2022-12-20T19:53:38.041Z,25.80
2022-12-20T19:56:05.425Z,24.13
2022-12-20T19:58:32.600Z,24.95
2022-12-20T20:00:59.919Z,24.38
2022-12-20T20:03:27.238Z,24.13
2022-12-20T20:05:55.727Z,24.60
2022-12-20T20:08:22.931Z,22.75
2022-12-20T20:10:53.899Z,23.48
2022-12-20T20:13:21.277Z,26.58
2022-12-20T20:15:52.256Z,27.33
2022-12-20T20:18:19.490Z,26.25
2022-12-20T20:20:47.382Z,28.60
2022-12-20T20:23:15.446Z,27.70
2022-12-20T20:26:00.079Z,27.92
2022-12-20T20:28:32.393Z,26.60
2022-12-20T20:31:01.303Z,26.38
2022-12-20T20:33:30.244Z,24.60
2022-12-20T20:35:59.076Z,24.55
2022-12-20T20:38:27.926Z,24.38
2022-12-20T20:40:55.230Z,24.67
2022-12-20T20:43:22.922Z,25.20
2022-12-20T20:45:50.436Z,25.10
2022-12-20T20:48:18.066Z,24.48
2022-12-20T20:50:45.617Z,24.60
2022-12-20T20:53:14.017Z,22.02
2022-12-20T20:55:41.700Z,23.48
2022-12-20T20:58:08.850Z,23.75
2022-12-20T21:00:36.502Z,23.98
2022-12-20T21:03:04.244Z,22.77
2022-12-20T21:08:21.665Z,23.30
2022-12-20T21:10:49.561Z,23.63
2022-12-20T21:13:16.920Z,22.73
2022-12-20T21:15:44.614Z,22.27
2022-12-20T21:18:11.915Z,23.75
2022-12-20T21:20:39.498Z,23.65
2022-12-20T21:23:07.107Z,21.95
2022-12-20T21:25:34.288Z,23.38
2022-12-20T21:28:01.488Z,22.00
2022-12-20T21:30:28.801Z,22.70
2022-12-20T21:32:56.005Z,23.80
2022-12-20T21:35:23.175Z,23.67
2022-12-20T21:37:50.908Z,24.35
2022-12-20T21:40:20.455Z,22.23
2022-12-20T21:42:47.626Z,24.02
2022-12-20T21:45:15.855Z,22.35
2022-12-20T21:47:43.077Z,22.13
2022-12-20T21:50:10.503Z,22.40
2022-12-20T21:52:40.005Z,22.00
2022-12-20T21:55:07.349Z,22.85
2022-12-20T21:57:35.038Z,21.70
2022-12-20T22:00:03.631Z,22.35
2022-12-20T22:02:32.308Z,20.63
2022-12-20T22:04:59.517Z,22.98
2022-12-20T22:07:26.660Z,22.58
2022-12-20T22:09:53.829Z,23.00
2022-12-20T22:12:21.326Z,22.63
2022-12-20T22:14:48.455Z,22.58
2022-12-20T22:17:15.574Z,23.25
2022-12-20T22:19:42.797Z,24.30
2022-12-20T22:22:10.049Z,24.05
2022-12-20T22:24:37.387Z,25.17
2022-12-20T22:27:11.026Z,25.90
2022-12-20T22:29:38.598Z,25.35
2022-12-20T22:32:05.962Z,25.45
2022-12-20T22:34:33.104Z,25.83
2022-12-20T22:37:00.470Z,24.08
2022-12-20T22:39:27.631Z,24.13
2022-12-20T22:41:54.743Z,24.17
2022-12-20T22:44:21.876Z,25.83
2022-12-20T22:46:49.075Z,25.90
2022-12-20T22:49:19.416Z,24.70
2022-12-20T22:51:59.119Z,24.63
2022-12-20T22:54:33.412Z,26.60
2022-12-20T22:57:00.539Z,26.42
2022-12-20T22:59:27.762Z,26.60
2022-12-20T23:01:55.009Z,26.02
2022-12-20T23:04:22.307Z,25.02
2022-12-20T23:06:49.411Z,27.48
2022-12-20T23:09:16.614Z,27.83
2022-12-20T23:12:02.454Z,25.35
2022-12-20T23:14:48.315Z,27.30
2022-12-20T23:17:15.787Z,28.90
2022-12-20T23:20:01.675Z,25.75
2022-12-20T23:22:38.005Z,25.02
2022-12-20T23:25:06.363Z,25.95
2022-12-20T23:27:33.593Z,27.52
2022-12-20T23:30:00.995Z,26.58
2022-12-20T23:32:29.056Z,26.05
2022-12-20T23:34:57.248Z,26.42
2022-12-20T23:37:24.775Z,25.80
2022-12-20T23:39:53.474Z,25.90
2022-12-20T23:42:20.745Z,26.70
2022-12-20T23:44:48.931Z,25.42
2022-12-20T23:47:18.961Z,28.15
2022-12-20T23:49:46.515Z,24.73
2022-12-20T23:52:13.800Z,26.48
2022-12-20T23:54:40.970Z,26.60
2022-12-20T23:57:08.098Z,25.67
2022-12-20T23:59:35.269Z,25.65
